createdAt,value
2023-10-14T00:00:28.990Z,5.90
2023-10-14T00:04:08.532Z,5.60
2023-10-14T00:07:12.378Z,5.30
2023-10-14T00:10:14.366Z,5.30
2023-10-14T00:13:17.431Z,6.10
2023-10-14T00:16:35.739Z,5.40
2023-10-14T00:19:38.370Z,6.10
2023-10-14T00:22:40.259Z,6.10
2023-10-14T00:25:43.831Z,5.80
2023-10-14T00:28:46.413Z,6.00
2023-10-14T00:31:52.941Z,5.80
2023-10-14T00:34:55.064Z,6.20
2023-10-14T00:38:03.303Z,6.40
2023-10-14T00:41:09.307Z,5.20
2023-10-14T00:44:11.829Z,5.40
2023-10-14T00:47:16.157Z,5.40
2023-10-14T00:53:47.430Z,5.10
2023-10-14T00:56:49.872Z,6.00
2023-10-14T00:59:55.679Z,5.60
2023-10-14T01:02:58.327Z,6.60
2023-10-14T01:06:15.885Z,6.40
2023-10-14T01:09:18.222Z,6.50
2023-10-14T01:12:28.720Z,5.40
2023-10-14T01:15:31.370Z,5.30
2023-10-14T01:18:35.325Z,5.30
2023-10-14T01:21:41.200Z,5.50
2023-10-14T01:24:43.294Z,6.30
2023-10-14T01:27:45.316Z,5.40
2023-10-14T01:31:30.916Z,6.00
2023-10-14T01:34:42.597Z,5.90
2023-10-14T01:37:45.811Z,5.70
2023-10-14T01:40:53.038Z,5.10
2023-10-14T01:43:55.473Z,4.70
2023-10-14T01:46:57.454Z,5.70
2023-10-14T01:50:00.752Z,5.80
2023-10-14T01:53:11.220Z,6.10
2023-10-14T01:56:13.383Z,5.10
2023-10-14T01:59:16.888Z,5.20
2023-10-14T02:02:20.903Z,5.10
2023-10-14T02:05:26.625Z,5.00
2023-10-14T02:08:29.348Z,5.90
2023-10-14T02:11:34.341Z,5.80
2023-10-14T02:14:40.666Z,6.40
2023-10-14T02:17:42.580Z,6.20
2023-10-14T02:21:05.569Z,5.60
2023-10-14T02:24:11.013Z,5.50
2023-10-14T02:27:14.146Z,5.10
2023-10-14T02:30:16.280Z,5.40
2023-10-14T02:33:21.889Z,5.90
2023-10-14T02:36:35.079Z,6.30
2023-10-14T02:39:36.975Z,6.30
2023-10-14T02:42:40.168Z,5.50
2023-10-14T02:45:46.133Z,6.20
2023-10-14T02:48:54.373Z,5.50
2023-10-14T02:52:01.759Z,5.40
2023-10-14T02:55:23.225Z,5.10
2023-10-14T02:58:25.528Z,5.10
2023-10-14T03:01:32.042Z,5.80
2023-10-14T03:05:01.449Z,4.80
2023-10-14T03:08:09.717Z,5.70
2023-10-14T03:11:18.808Z,6.40
2023-10-14T03:14:21.013Z,5.30
2023-10-14T03:17:26.159Z,5.60
2023-10-14T03:20:34.049Z,5.30
2023-10-14T03:23:35.906Z,5.00
2023-10-14T03:26:38.476Z,4.90
2023-10-14T03:29:45.805Z,5.50
2023-10-14T03:32:47.723Z,6.10
2023-10-14T03:36:05.849Z,4.80
2023-10-14T03:39:30.295Z,5.40
2023-10-14T03:42:33.509Z,6.50
2023-10-14T03:45:46.775Z,5.20
2023-10-14T03:48:48.744Z,5.60
2023-10-14T03:51:57.058Z,5.20
2023-10-14T03:54:59.146Z,5.90
2023-10-14T03:58:04.416Z,5.00
2023-10-14T04:01:07.404Z,5.40
2023-10-14T04:04:19.620Z,5.60
2023-10-14T04:07:28.887Z,5.30
2023-10-14T04:10:34.938Z,5.60
2023-10-14T04:13:40.903Z,6.00
2023-10-14T04:16:45.585Z,5.60
2023-10-14T04:19:53.592Z,5.30
2023-10-14T04:22:56.453Z,4.60
2023-10-14T04:26:03.829Z,5.50
2023-10-14T04:29:12.251Z,5.70
2023-10-14T04:32:17.902Z,5.00
2023-10-14T04:35:25.857Z,5.30
2023-10-14T04:38:38.667Z,4.70
2023-10-14T04:42:14.305Z,5.50
2023-10-14T04:45:16.914Z,5.60
2023-10-14T04:48:28.776Z,5.20
2023-10-14T04:51:46.236Z,5.60
2023-10-14T04:55:17.441Z,6.10
2023-10-14T04:58:24.949Z,6.10
2023-10-14T05:01:28.268Z,5.70
2023-10-14T05:04:31.495Z,6.20
2023-10-14T05:07:36.888Z,5.00
2023-10-14T05:10:42.771Z,4.90
2023-10-14T05:14:04.741Z,6.00
2023-10-14T05:17:15.126Z,5.20
2023-10-14T05:20:20.520Z,5.50
2023-10-14T05:23:31.432Z,4.30
2023-10-14T05:26:36.883Z,4.60
2023-10-14T05:29:38.873Z,4.70
2023-10-14T05:32:40.742Z,4.50
2023-10-14T05:35:43.722Z,4.90
2023-10-14T05:38:46.043Z,5.20
2023-10-14T05:41:58.665Z,4.90
2023-10-14T05:45:02.339Z,4.90
2023-10-14T05:48:08.061Z,4.20
2023-10-14T05:51:10.033Z,4.40
2023-10-14T05:54:12.037Z,4.10
2023-10-14T05:57:13.989Z,4.50
2023-10-14T06:00:23.351Z,4.90
2023-10-14T06:03:25.551Z,5.30
2023-10-14T06:06:27.517Z,4.20
2023-10-14T06:09:32.023Z,3.80
2023-10-14T06:15:39.907Z,4.00
2023-10-14T06:18:44.610Z,4.50
2023-10-14T06:21:46.510Z,4.00
2023-10-14T06:24:48.560Z,4.20
2023-10-14T06:27:50.477Z,4.50
2023-10-14T06:30:52.465Z,3.20
2023-10-14T06:33:55.153Z,4.40
2023-10-14T06:36:57.038Z,4.50
2023-10-14T06:39:59.333Z,4.90
2023-10-14T06:43:07.053Z,4.50
2023-10-14T06:46:12.387Z,4.10
2023-10-14T06:49:14.505Z,3.80
2023-10-14T06:52:18.772Z,4.30
2023-10-14T06:55:23.621Z,4.90
2023-10-14T06:58:28.399Z,4.80
2023-10-14T07:01:30.594Z,4.10
2023-10-14T07:04:38.394Z,4.30
2023-10-14T07:07:40.461Z,3.80
2023-10-14T07:10:42.710Z,4.10
2023-10-14T07:13:46.640Z,4.30
2023-10-14T07:16:51.068Z,4.60
2023-10-14T07:19:52.984Z,5.00
2023-10-14T07:22:54.903Z,3.90
2023-10-14T07:25:58.396Z,4.80
2023-10-14T07:29:00.456Z,4.60
2023-10-14T07:32:02.628Z,4.30
2023-10-14T07:35:05.770Z,4.80
2023-10-14T07:38:09.172Z,4.30
2023-10-14T07:41:13.095Z,4.30
2023-10-14T07:44:15.551Z,4.60
2023-10-14T07:47:17.496Z,5.60
2023-10-14T07:50:19.552Z,5.60
2023-10-14T07:53:23.213Z,4.90
2023-10-14T07:56:25.283Z,4.80
2023-10-14T07:59:27.279Z,4.80
2023-10-14T08:02:29.660Z,5.30
2023-10-14T08:05:35.350Z,5.20
2023-10-14T08:08:47.965Z,5.60
2023-10-14T08:11:51.022Z,4.80
2023-10-14T08:14:54.965Z,5.30
2023-10-14T08:18:01.092Z,5.40
2023-10-14T08:21:03.915Z,5.40
2023-10-14T08:24:06.915Z,5.50
2023-10-14T08:27:12.558Z,5.50
2023-10-14T08:30:16.981Z,4.90
2023-10-14T08:36:21.686Z,5.80
2023-10-14T08:39:24.466Z,4.60
2023-10-14T08:42:29.615Z,5.70
2023-10-14T08:45:39.351Z,5.80
2023-10-14T08:48:43.135Z,5.50
2023-10-14T08:51:54.363Z,5.50
2023-10-14T08:54:57.406Z,6.00
2023-10-14T08:58:07.753Z,5.70
2023-10-14T09:01:16.515Z,6.10
2023-10-14T09:04:31.407Z,5.90
2023-10-14T09:07:37.887Z,6.20
2023-10-14T09:10:40.112Z,5.80
2023-10-14T09:13:42.303Z,6.10
2023-10-14T09:16:49.312Z,6.30
2023-10-14T09:19:51.244Z,6.10
2023-10-14T09:23:12.251Z,6.50
2023-10-14T09:26:18.473Z,6.00
2023-10-14T09:29:22.906Z,5.50
2023-10-14T09:32:25.681Z,5.40
2023-10-14T09:35:30.004Z,6.30
2023-10-14T09:38:33.553Z,7.00
2023-10-14T09:41:38.100Z,6.10
2023-10-14T09:44:43.843Z,6.00
2023-10-14T09:47:46.508Z,5.70
2023-10-14T09:50:50.587Z,5.40
2023-10-14T09:53:54.613Z,5.80
2023-10-14T09:56:56.682Z,5.60
2023-10-14T09:59:58.752Z,6.60
2023-10-14T10:03:07.550Z,6.00
2023-10-14T10:06:26.805Z,5.30
2023-10-14T10:09:58.985Z,5.30
2023-10-14T10:13:02.626Z,6.00
2023-10-14T10:16:05.434Z,5.40
2023-10-14T10:19:12.555Z,5.30
2023-10-14T10:22:18.316Z,5.50
2023-10-14T10:25:48.045Z,5.40
2023-10-14T10:28:50.001Z,6.00
2023-10-14T10:32:09.489Z,5.50
2023-10-14T10:35:16.785Z,5.50
2023-10-14T10:38:19.089Z,5.70
2023-10-14T10:41:26.891Z,4.90
2023-10-14T10:44:33.850Z,5.30
2023-10-14T10:47:45.052Z,5.40
2023-10-14T10:50:51.587Z,5.10
2023-10-14T10:53:54.497Z,5.50
2023-10-14T10:57:07.770Z,5.40
2023-10-14T11:00:18.407Z,5.00
2023-10-14T11:03:20.631Z,5.80
2023-10-14T11:06:26.436Z,5.20
2023-10-14T11:09:31.856Z,5.20
2023-10-14T11:12:35.609Z,4.00
2023-10-14T11:15:38.572Z,4.20
2023-10-14T11:18:49.657Z,4.30
2023-10-14T11:21:53.375Z,4.10
2023-10-14T11:24:55.997Z,3.90
2023-10-14T11:27:58.540Z,4.50
2023-10-14T11:31:01.767Z,4.70
2023-10-14T11:34:04.143Z,4.50
2023-10-14T11:37:12.071Z,3.70
2023-10-14T11:40:14.807Z,3.90
2023-10-14T11:43:18.542Z,4.50
2023-10-14T11:46:21.293Z,4.30
2023-10-14T11:49:24.605Z,3.90
2023-10-14T11:52:26.668Z,4.60
2023-10-14T11:55:28.821Z,4.30
2023-10-14T11:58:33.462Z,4.60
2023-10-14T12:01:38.475Z,4.20
2023-10-14T12:04:41.339Z,4.40
2023-10-14T12:07:44.498Z,4.00
2023-10-14T12:10:46.359Z,4.30
2023-10-14T12:13:51.741Z,4.60
2023-10-14T12:16:54.015Z,4.80
2023-10-14T12:19:57.735Z,4.20
2023-10-14T12:22:59.669Z,3.80
2023-10-14T12:26:02.334Z,4.60
2023-10-14T12:29:08.306Z,3.90
2023-10-14T12:32:19.039Z,3.90
2023-10-14T12:35:28.553Z,4.00
2023-10-14T12:38:30.677Z,4.50
2023-10-14T12:41:34.009Z,4.50
2023-10-14T12:44:35.939Z,4.70
2023-10-14T12:47:39.274Z,4.20
2023-10-14T12:50:41.174Z,4.50
2023-10-14T12:53:46.275Z,4.30
2023-10-14T12:56:51.033Z,4.50
2023-10-14T12:59:53.013Z,4.50
2023-10-14T13:02:56.612Z,5.20
2023-10-14T13:05:58.671Z,4.70
2023-10-14T13:09:01.522Z,4.30
2023-10-14T13:12:09.431Z,4.90
2023-10-14T13:15:11.657Z,5.10
2023-10-14T13:18:13.621Z,4.80
2023-10-14T13:21:18.646Z,4.80
2023-10-14T13:24:20.544Z,4.90
2023-10-14T13:27:22.478Z,4.70
2023-10-14T13:30:24.706Z,4.60
2023-10-14T13:33:26.835Z,4.90
2023-10-14T13:36:28.712Z,4.50
2023-10-14T13:39:35.027Z,4.60
2023-10-14T13:42:37.198Z,4.40
2023-10-14T13:45:41.787Z,4.60
2023-10-14T13:48:44.080Z,4.20
2023-10-14T13:51:45.961Z,4.70
2023-10-14T13:54:47.908Z,5.40
2023-10-14T13:57:51.351Z,5.40
2023-10-14T14:00:56.472Z,3.30
2023-10-14T14:03:59.218Z,3.40
2023-10-14T14:07:07.295Z,3.00
2023-10-14T14:10:14.597Z,2.20
2023-10-14T14:13:21.006Z,2.20
2023-10-14T14:16:24.324Z,2.60
2023-10-14T14:19:26.805Z,2.10
2023-10-14T14:22:29.021Z,1.90
2023-10-14T14:25:32.955Z,1.60
2023-10-14T14:28:37.815Z,1.90
2023-10-14T14:31:40.030Z,2.40
2023-10-14T14:34:42.938Z,1.50
2023-10-14T14:37:46.452Z,1.70
2023-10-14T14:40:49.301Z,1.80
2023-10-14T14:43:51.327Z,1.90
2023-10-14T14:46:53.322Z,1.80
2023-10-14T14:49:56.051Z,2.00
2023-10-14T14:53:00.556Z,2.30
2023-10-14T14:56:10.472Z,2.20
2023-10-14T14:59:13.916Z,2.20
2023-10-14T15:02:16.662Z,2.20
2023-10-14T15:05:18.868Z,2.40
2023-10-14T15:08:23.600Z,2.20
2023-10-14T15:11:26.083Z,2.70
2023-10-14T15:14:29.639Z,2.80
2023-10-14T15:17:32.301Z,2.60
2023-10-14T15:20:35.607Z,2.60
2023-10-14T15:23:38.577Z,2.60
2023-10-14T15:26:41.664Z,2.60
2023-10-14T15:29:43.589Z,4.10
2023-10-14T15:32:47.622Z,3.40
2023-10-14T15:35:50.424Z,2.50
2023-10-14T15:38:52.575Z,3.30
2023-10-14T15:41:54.772Z,3.00
2023-10-14T15:44:56.704Z,2.70
2023-10-14T15:48:02.241Z,2.50
2023-10-14T15:51:04.282Z,3.00
2023-10-14T15:54:06.665Z,3.40
2023-10-14T15:57:09.540Z,3.20
2023-10-14T16:00:30.549Z,3.40
2023-10-14T16:03:34.459Z,3.70
2023-10-14T16:06:37.026Z,3.20
2023-10-14T16:09:41.370Z,3.30
2023-10-14T16:15:45.308Z,2.90
2023-10-14T16:18:47.693Z,2.00
2023-10-14T16:21:49.643Z,2.00
2023-10-14T16:24:51.535Z,2.40
2023-10-14T16:27:53.998Z,1.90
2023-10-14T16:30:56.291Z,2.80
2023-10-14T16:33:59.263Z,3.00
2023-10-14T16:37:01.198Z,3.00
2023-10-14T16:40:13.732Z,2.60
2023-10-14T16:43:15.782Z,3.00
2023-10-14T16:46:18.310Z,2.60
2023-10-14T16:49:20.403Z,2.80
2023-10-14T16:52:23.501Z,2.50
2023-10-14T16:55:26.580Z,2.70
2023-10-14T16:58:29.560Z,2.20
2023-10-14T17:01:31.577Z,2.70
2023-10-14T17:04:34.079Z,2.30
2023-10-14T17:07:36.522Z,2.10
2023-10-14T17:10:38.754Z,2.20
2023-10-14T17:13:40.852Z,2.20
2023-10-14T17:16:44.005Z,2.30
2023-10-14T17:19:46.325Z,2.70
2023-10-14T17:23:00.961Z,2.30
2023-10-14T17:26:02.999Z,2.30
2023-10-14T17:29:04.954Z,2.20
2023-10-14T17:32:06.910Z,2.30
2023-10-14T17:35:15.823Z,2.50
2023-10-14T17:38:17.745Z,2.30
2023-10-14T17:41:20.024Z,2.90
2023-10-14T17:44:21.955Z,3.50
2023-10-14T17:47:23.961Z,3.90
2023-10-14T17:50:28.382Z,4.20
2023-10-14T17:56:32.126Z,4.50
2023-10-14T17:59:34.027Z,5.00
2023-10-14T18:02:36.929Z,4.20
2023-10-14T18:05:42.011Z,3.40
2023-10-14T18:08:43.962Z,3.70
2023-10-14T18:11:50.540Z,3.20
2023-10-14T18:14:54.987Z,3.80
2023-10-14T18:17:57.662Z,2.70
2023-10-14T18:21:01.839Z,4.00
2023-10-14T18:24:04.870Z,2.70
2023-10-14T18:27:07.764Z,3.50
2023-10-14T18:30:13.944Z,3.40
2023-10-14T18:33:20.168Z,3.30
2023-10-14T18:36:22.267Z,3.40
2023-10-14T18:39:26.733Z,4.30
2023-10-14T18:45:32.278Z,4.20
2023-10-14T18:48:34.391Z,3.10
2023-10-14T18:51:36.288Z,4.20
2023-10-14T18:54:39.919Z,3.50
2023-10-14T18:57:52.049Z,3.10
2023-10-14T19:00:55.590Z,2.90
2023-10-14T19:03:59.848Z,3.10
2023-10-14T19:07:02.213Z,2.80
2023-10-14T19:10:07.343Z,3.00
2023-10-14T19:13:11.632Z,4.00
2023-10-14T19:16:14.144Z,3.50
2023-10-14T19:19:16.569Z,3.20
2023-10-14T19:22:19.111Z,3.90
2023-10-14T19:25:23.077Z,3.90
2023-10-14T19:28:27.927Z,3.40
2023-10-14T19:31:36.288Z,3.80
2023-10-14T19:34:39.012Z,3.40
2023-10-14T19:37:41.955Z,3.90
2023-10-14T19:40:44.704Z,4.20
2023-10-14T19:43:49.321Z,5.40
2023-10-14T19:46:51.998Z,4.90
2023-10-14T19:49:54.794Z,4.50
2023-10-14T19:52:58.474Z,4.70
2023-10-14T19:56:01.624Z,4.60
2023-10-14T19:59:05.190Z,5.30
2023-10-14T20:02:09.241Z,5.40
2023-10-14T20:05:12.680Z,4.80
2023-10-14T20:08:22.676Z,5.20
2023-10-14T20:14:27.998Z,5.30
2023-10-14T20:17:30.517Z,6.10
2023-10-14T20:20:33.354Z,4.50
2023-10-14T20:23:35.893Z,4.40
2023-10-14T20:26:38.076Z,4.60
2023-10-14T20:29:40.255Z,4.30
2023-10-14T20:32:42.898Z,4.90
2023-10-14T20:35:45.915Z,5.00
2023-10-14T20:38:52.936Z,6.20
2023-10-14T20:41:59.565Z,8.40
2023-10-14T20:45:04.974Z,11.80
2023-10-14T20:48:07.320Z,8.20
2023-10-14T20:51:12.056Z,5.90
2023-10-14T20:54:14.990Z,4.70
2023-10-14T20:57:16.873Z,4.10
2023-10-14T21:00:25.758Z,4.00
2023-10-14T21:03:28.110Z,4.60
2023-10-14T21:06:30.571Z,3.70
2023-10-14T21:09:32.946Z,4.40
2023-10-14T21:12:34.816Z,3.70
2023-10-14T21:15:40.647Z,4.40
2023-10-14T21:18:42.937Z,4.10
2023-10-14T21:21:44.922Z,4.40
2023-10-14T21:24:46.821Z,4.30
2023-10-14T21:27:48.866Z,3.40
2023-10-14T21:30:51.559Z,3.20
2023-10-14T21:33:53.576Z,3.20
2023-10-14T21:36:55.645Z,3.70
2023-10-14T21:39:57.822Z,3.20
2023-10-14T21:43:00.377Z,3.10
2023-10-14T21:46:08.637Z,3.00
2023-10-14T21:49:11.915Z,3.00
2023-10-14T21:52:13.873Z,3.10
2023-10-14T21:55:20.588Z,3.30
2023-10-14T21:58:23.519Z,3.20
2023-10-14T22:01:25.716Z,3.60
2023-10-14T22:04:28.681Z,3.80
2023-10-14T22:07:32.662Z,3.20
2023-10-14T22:10:34.629Z,3.10
2023-10-14T22:13:39.894Z,2.90
2023-10-14T22:16:42.007Z,3.60
2023-10-14T22:19:44.559Z,3.10
2023-10-14T22:22:50.940Z,3.50
2023-10-14T22:25:56.984Z,3.40
2023-10-14T22:28:59.884Z,2.90
2023-10-14T22:32:01.850Z,3.40
2023-10-14T22:35:07.493Z,3.60
2023-10-14T22:38:13.050Z,3.30
2023-10-14T22:41:15.576Z,3.20
2023-10-14T22:44:17.480Z,3.30
2023-10-14T22:47:19.460Z,3.00
2023-10-14T22:50:22.937Z,4.30
2023-10-14T22:53:25.282Z,3.40
2023-10-14T22:56:27.228Z,3.30
2023-10-14T22:59:29.150Z,3.10
2023-10-14T23:02:33.479Z,3.40
2023-10-14T23:05:35.565Z,2.70
2023-10-14T23:08:37.999Z,3.00
2023-10-14T23:11:42.339Z,3.20
2023-10-14T23:14:44.678Z,3.00
2023-10-14T23:17:54.177Z,2.90
2023-10-14T23:20:57.877Z,3.60
2023-10-14T23:24:06.349Z,3.40
2023-10-14T23:27:08.211Z,2.80
2023-10-14T23:30:17.362Z,3.00
2023-10-14T23:33:19.297Z,3.40
2023-10-14T23:36:21.763Z,2.70
2023-10-14T23:39:28.073Z,2.80
2023-10-14T23:42:29.965Z,2.90
2023-10-14T23:45:32.808Z,2.40
2023-10-14T23:48:35.517Z,2.60
2023-10-14T23:51:37.517Z,2.40
2023-10-14T23:54:39.374Z,2.70
2023-10-14T23:57:41.396Z,3.10
